createdAt,value
2019-02-26T00:00:26.919Z,75.90
2019-02-26T00:02:56.349Z,77.10
2019-02-26T00:05:26.143Z,76.90
2019-02-26T00:07:56.161Z,77.00
2019-02-26T00:10:26.733Z,77.90
2019-02-26T00:12:55.323Z,78.10
2019-02-26T00:15:23.639Z,78.70
2019-02-26T00:17:53.030Z,78.70
2019-02-26T00:20:21.475Z,79.00
2019-02-26T00:22:49.896Z,79.70
2019-02-26T00:25:20.371Z,80.00
2019-02-26T00:27:49.634Z,80.00
2019-02-26T00:30:18.621Z,80.10
2019-02-26T00:32:47.133Z,80.30
2019-02-26T00:35:16.017Z,80.70
2019-02-26T00:37:46.641Z,81.00
2019-02-26T00:40:19.575Z,80.80
2019-02-26T00:42:45.559Z,80.30
2019-02-26T00:45:14.227Z,80.50
2019-02-26T00:47:43.551Z,81.00
2019-02-26T00:50:14.232Z,81.00
2019-02-26T00:52:43.792Z,81.10
2019-02-26T00:55:12.210Z,80.80
2019-02-26T00:57:42.482Z,81.00
2019-02-26T01:00:15.311Z,81.60
2019-02-26T01:02:43.603Z,81.60
2019-02-26T01:05:13.140Z,81.40
2019-02-26T01:07:44.260Z,81.60
2019-02-26T01:10:13.972Z,81.60
2019-02-26T01:12:42.638Z,81.50
2019-02-26T01:15:14.110Z,81.50
2019-02-26T01:17:42.538Z,81.10
2019-02-26T01:20:13.052Z,80.80
2019-02-26T01:22:42.851Z,81.10
2019-02-26T01:25:12.673Z,81.10
2019-02-26T01:27:43.712Z,81.40
2019-02-26T01:30:18.168Z,81.40
2019-02-26T01:32:45.522Z,81.00
2019-02-26T01:35:13.792Z,80.80
2019-02-26T01:37:42.103Z,81.10
2019-02-26T01:40:16.382Z,80.90
2019-02-26T01:42:47.295Z,81.10
2019-02-26T01:45:14.448Z,81.30
2019-02-26T01:47:45.269Z,81.00
2019-02-26T01:50:13.973Z,80.80
2019-02-26T01:52:43.295Z,80.70
2019-02-26T01:55:11.989Z,80.70
2019-02-26T01:57:42.655Z,80.50
2019-02-26T02:00:13.615Z,80.50
2019-02-26T02:02:41.930Z,80.30
2019-02-26T02:05:10.283Z,80.40
2019-02-26T02:07:38.662Z,80.40
2019-02-26T02:10:14.471Z,80.50
2019-02-26T02:12:42.748Z,80.50
2019-02-26T02:15:14.914Z,80.50
2019-02-26T02:17:42.923Z,80.50
2019-02-26T02:20:15.698Z,80.40
2019-02-26T02:22:44.465Z,80.60
2019-02-26T02:25:13.009Z,80.50
2019-02-26T02:27:41.368Z,80.70
2019-02-26T02:30:17.903Z,80.70
2019-02-26T02:32:43.019Z,80.70
2019-02-26T02:35:12.556Z,81.10
2019-02-26T02:37:41.354Z,80.90
2019-02-26T02:40:13.832Z,80.80
2019-02-26T02:42:43.102Z,80.90
2019-02-26T02:45:16.115Z,80.70
2019-02-26T02:47:42.949Z,80.80
2019-02-26T02:50:15.236Z,80.90
2019-02-26T02:52:44.552Z,80.70
2019-02-26T02:55:13.821Z,80.70
2019-02-26T02:57:42.831Z,80.50
2019-02-26T03:00:13.041Z,80.90
2019-02-26T03:02:43.242Z,80.90
2019-02-26T03:05:12.403Z,81.00
2019-02-26T03:07:42.374Z,81.10
2019-02-26T03:10:13.210Z,81.00
2019-02-26T03:12:44.105Z,80.80
2019-02-26T03:15:14.868Z,81.00
2019-02-26T03:17:43.221Z,80.80
2019-02-26T03:20:12.536Z,80.50
2019-02-26T03:22:45.089Z,80.80
2019-02-26T03:25:17.755Z,80.70
2019-02-26T03:27:45.399Z,80.60
2019-02-26T03:30:26.268Z,80.80
2019-02-26T03:32:50.526Z,80.50
2019-02-26T03:35:19.692Z,80.50
2019-02-26T03:37:48.798Z,80.30
2019-02-26T03:40:16.903Z,80.20
2019-02-26T03:42:46.282Z,80.50
2019-02-26T03:45:23.795Z,80.50
2019-02-26T03:47:47.727Z,80.30
2019-02-26T03:50:16.468Z,80.20
2019-02-26T03:52:44.928Z,80.40
2019-02-26T03:55:15.453Z,80.60
2019-02-26T03:57:47.257Z,80.50
2019-02-26T04:00:17.417Z,80.60
2019-02-26T04:02:48.134Z,80.80
2019-02-26T04:05:15.528Z,80.90
2019-02-26T04:07:44.150Z,81.20
2019-02-26T04:10:13.027Z,81.50
2019-02-26T04:12:42.230Z,81.80
2019-02-26T04:15:14.674Z,81.50
2019-02-26T04:17:42.957Z,81.40
2019-02-26T04:20:12.775Z,81.50
2019-02-26T04:22:43.172Z,82.20
2019-02-26T04:25:22.080Z,82.30
2019-02-26T04:28:12.302Z,82.60
2019-02-26T04:30:58.919Z,82.70
2019-02-26T04:33:48.825Z,82.70
2019-02-26T04:36:26.460Z,83.00
2019-02-26T04:39:15.847Z,83.30
2019-02-26T04:41:49.513Z,83.70
2019-02-26T04:44:26.821Z,83.50
2019-02-26T04:46:57.078Z,83.30
2019-02-26T04:49:27.132Z,83.50
2019-02-26T04:51:54.991Z,83.70
2019-02-26T04:54:26.319Z,84.00
2019-02-26T04:56:53.331Z,84.10
2019-02-26T04:59:21.609Z,84.20
2019-02-26T05:01:52.222Z,84.30
2019-02-26T05:04:19.934Z,84.20
2019-02-26T05:06:48.279Z,84.40
2019-02-26T05:09:17.526Z,84.40
2019-02-26T05:11:45.861Z,84.70
2019-02-26T05:14:15.369Z,84.60
2019-02-26T05:16:44.185Z,84.80
2019-02-26T05:19:13.594Z,84.80
2019-02-26T05:21:42.530Z,84.90
2019-02-26T05:24:13.058Z,84.70
2019-02-26T05:26:40.860Z,84.90
2019-02-26T05:29:12.260Z,85.60
2019-02-26T05:31:43.040Z,85.70
2019-02-26T05:34:12.453Z,85.80
2019-02-26T05:36:43.542Z,85.90
2019-02-26T05:39:10.693Z,86.10
2019-02-26T05:41:40.628Z,85.90
2019-02-26T05:44:10.671Z,86.10
2019-02-26T05:46:39.199Z,86.50
2019-02-26T05:49:10.621Z,86.60
2019-02-26T05:51:38.238Z,86.60
2019-02-26T05:54:08.011Z,86.90
2019-02-26T05:56:38.158Z,86.80
2019-02-26T05:59:07.464Z,87.10
2019-02-26T06:01:36.856Z,87.30
2019-02-26T06:04:07.697Z,86.80
2019-02-26T06:06:35.204Z,87.10
2019-02-26T06:09:05.601Z,87.70
2019-02-26T06:11:38.546Z,87.70
2019-02-26T06:14:09.079Z,87.90
2019-02-26T06:16:35.165Z,87.70
2019-02-26T06:19:03.566Z,88.00
2019-02-26T06:21:31.908Z,87.90
2019-02-26T06:24:00.410Z,88.40
2019-02-26T06:26:32.690Z,88.30
2019-02-26T06:28:58.780Z,88.20
2019-02-26T06:31:27.346Z,88.40
2019-02-26T06:33:55.727Z,88.40
2019-02-26T06:36:25.754Z,88.30
2019-02-26T06:38:56.025Z,88.70
2019-02-26T06:41:24.195Z,88.70
2019-02-26T06:43:55.088Z,88.60
2019-02-26T06:46:29.431Z,88.60
2019-02-26T06:48:58.827Z,88.80
2019-02-26T06:51:28.307Z,89.20
2019-02-26T06:53:58.833Z,90.00
2019-02-26T06:56:27.243Z,89.60
2019-02-26T06:58:55.592Z,89.80
2019-02-26T07:01:23.971Z,90.00
2019-02-26T07:03:53.847Z,90.10
2019-02-26T07:06:23.416Z,90.20
2019-02-26T07:08:53.500Z,90.00
2019-02-26T07:11:21.302Z,90.20
2019-02-26T07:13:55.431Z,90.20
2019-02-26T07:16:23.745Z,90.20
2019-02-26T07:18:52.119Z,90.20
2019-02-26T07:21:20.430Z,90.30
2019-02-26T07:23:48.919Z,90.40
2019-02-26T07:26:18.539Z,90.40
2019-02-26T07:28:48.808Z,90.10
2019-02-26T07:31:17.442Z,90.40
2019-02-26T07:33:45.785Z,90.40
2019-02-26T07:36:16.065Z,90.20
2019-02-26T07:38:46.446Z,90.30
2019-02-26T07:41:14.225Z,90.30
2019-02-26T07:43:44.608Z,90.30
2019-02-26T07:46:14.476Z,90.30
2019-02-26T07:48:42.647Z,90.50
2019-02-26T07:51:10.923Z,90.60
2019-02-26T07:53:42.008Z,90.60
2019-02-26T07:56:11.896Z,90.50
2019-02-26T07:58:41.197Z,90.30
2019-02-26T08:01:10.276Z,90.70
2019-02-26T08:03:38.557Z,90.90
2019-02-26T08:06:09.127Z,91.10
2019-02-26T08:08:37.462Z,91.00
2019-02-26T08:11:06.997Z,91.20
2019-02-26T08:13:36.598Z,91.30
2019-02-26T08:16:05.181Z,91.30
2019-02-26T08:18:33.748Z,91.30
2019-02-26T08:21:03.000Z,91.20
2019-02-26T08:23:32.159Z,91.20
2019-02-26T08:26:02.326Z,91.10
2019-02-26T08:28:38.386Z,91.20
2019-02-26T08:31:05.503Z,91.10
2019-02-26T08:33:33.807Z,91.10
2019-02-26T08:36:03.053Z,91.20
2019-02-26T08:38:31.447Z,91.10
2019-02-26T08:40:59.992Z,91.10
2019-02-26T08:43:30.008Z,91.00
2019-02-26T08:45:58.329Z,90.60
2019-02-26T08:48:27.154Z,90.60
2019-02-26T08:50:55.869Z,90.50
2019-02-26T08:53:26.498Z,90.40
2019-02-26T08:55:56.271Z,90.20
2019-02-26T08:58:25.748Z,90.10
2019-02-26T09:00:54.619Z,89.70
2019-02-26T09:03:22.916Z,88.70
2019-02-26T09:05:52.170Z,88.50
2019-02-26T09:08:21.335Z,88.90
2019-02-26T09:10:49.607Z,88.10
2019-02-26T09:13:18.703Z,88.00
2019-02-26T09:15:47.407Z,88.20
2019-02-26T09:18:16.022Z,88.20
2019-02-26T09:20:44.491Z,88.20
2019-02-26T09:23:16.312Z,88.00
2019-02-26T09:25:42.916Z,87.50
2019-02-26T09:28:11.290Z,87.60
2019-02-26T09:30:40.822Z,87.20
2019-02-26T09:33:10.925Z,86.80
2019-02-26T09:35:38.588Z,86.00
2019-02-26T09:38:06.918Z,85.00
2019-02-26T09:40:35.726Z,84.30
2019-02-26T09:43:06.046Z,85.10
2019-02-26T09:45:34.240Z,84.90
2019-02-26T09:48:02.597Z,85.10
2019-02-26T09:50:31.469Z,85.50
2019-02-26T09:52:59.807Z,85.10
2019-02-26T09:55:28.224Z,86.60
2019-02-26T09:57:56.591Z,86.30
2019-02-26T10:00:27.097Z,85.60
2019-02-26T10:02:55.629Z,85.20
2019-02-26T10:05:40.161Z,84.90
2019-02-26T10:08:08.838Z,85.30
2019-02-26T10:10:39.679Z,84.30
2019-02-26T10:13:07.292Z,84.50
2019-02-26T10:15:37.391Z,84.30
2019-02-26T10:18:07.231Z,84.70
2019-02-26T10:20:35.671Z,84.50
2019-02-26T10:23:06.186Z,84.80
2019-02-26T10:25:34.990Z,85.50
2019-02-26T10:28:08.809Z,85.20
2019-02-26T10:30:38.281Z,85.30
2019-02-26T10:33:06.003Z,85.50
2019-02-26T10:35:36.143Z,85.50
2019-02-26T10:38:06.231Z,86.30
2019-02-26T10:40:37.071Z,86.20
2019-02-26T10:43:04.386Z,85.40
2019-02-26T10:45:36.034Z,84.60
2019-02-26T10:48:02.777Z,83.00
2019-02-26T10:50:32.050Z,83.30
2019-02-26T10:53:07.229Z,83.00
2019-02-26T10:55:38.197Z,82.80
2019-02-26T10:58:04.763Z,82.20
2019-02-26T11:00:34.497Z,80.10
2019-02-26T11:03:01.108Z,79.80
2019-02-26T11:05:29.459Z,80.70
2019-02-26T11:08:01.718Z,80.60
2019-02-26T11:10:28.132Z,80.50
2019-02-26T11:12:59.275Z,80.50
2019-02-26T11:15:29.767Z,81.50
2019-02-26T11:17:56.539Z,80.70
2019-02-26T11:20:27.799Z,79.60
2019-02-26T11:22:55.480Z,79.80
2019-02-26T11:25:24.891Z,78.30
2019-02-26T11:27:53.763Z,77.70
2019-02-26T11:30:25.851Z,77.60
2019-02-26T11:32:56.028Z,78.30
2019-02-26T11:35:24.647Z,78.00
2019-02-26T11:37:55.400Z,76.80
2019-02-26T11:40:25.435Z,76.90
2019-02-26T11:42:54.844Z,75.90
2019-02-26T11:45:24.498Z,75.70
2019-02-26T11:47:52.160Z,76.30
2019-02-26T11:50:28.090Z,75.60
2019-02-26T11:52:55.036Z,74.80
2019-02-26T11:55:24.382Z,75.20
2019-02-26T11:57:53.539Z,74.70
2019-02-26T12:00:42.268Z,73.00
2019-02-26T12:03:12.438Z,72.20
2019-02-26T12:05:41.834Z,72.50
2019-02-26T12:08:11.546Z,73.40
2019-02-26T12:10:42.223Z,74.50
2019-02-26T12:13:10.564Z,71.90
2019-02-26T12:15:42.624Z,69.80
2019-02-26T12:18:10.177Z,66.50
2019-02-26T12:20:41.006Z,63.00
2019-02-26T12:23:11.602Z,62.40
2019-02-26T12:25:39.296Z,60.00
2019-02-26T12:28:08.157Z,61.30
2019-02-26T12:30:43.739Z,60.10
2019-02-26T12:33:12.358Z,60.00
2019-02-26T12:35:42.966Z,58.40
2019-02-26T12:38:18.067Z,55.60
2019-02-26T12:40:44.101Z,53.40
2019-02-26T12:43:11.683Z,54.10
2019-02-26T12:45:40.832Z,53.90
2019-02-26T12:48:10.304Z,56.20
2019-02-26T12:50:40.469Z,57.70
2019-02-26T12:53:12.706Z,55.00
2019-02-26T12:55:42.072Z,54.50
2019-02-26T12:58:10.624Z,55.40
2019-02-26T13:00:41.999Z,55.10
2019-02-26T13:03:12.339Z,54.60
2019-02-26T13:05:42.450Z,54.60
2019-02-26T13:08:10.582Z,55.10
2019-02-26T13:10:42.558Z,55.80
2019-02-26T13:13:09.449Z,55.60
2019-02-26T13:15:37.865Z,52.90
2019-02-26T13:18:06.322Z,49.40
2019-02-26T13:20:35.357Z,48.80
2019-02-26T13:23:16.490Z,50.00
2019-02-26T13:25:34.596Z,50.10
2019-02-26T13:28:02.886Z,49.40
2019-02-26T13:30:31.285Z,50.20
2019-02-26T13:33:00.886Z,49.70
2019-02-26T13:35:29.715Z,50.00
2019-02-26T13:38:02.968Z,48.60
2019-02-26T13:40:38.222Z,47.60
2019-02-26T13:45:29.736Z,47.90
2019-02-26T13:48:01.320Z,47.30
2019-02-26T13:50:30.406Z,47.50
2019-02-26T13:52:58.716Z,48.70
2019-02-26T13:55:26.991Z,48.30
2019-02-26T13:57:55.388Z,48.50
2019-02-26T14:00:26.721Z,48.30
2019-02-26T14:02:53.764Z,47.90
2019-02-26T14:05:22.251Z,47.20
2019-02-26T14:07:50.731Z,45.40
2019-02-26T14:10:25.667Z,43.80
2019-02-26T14:12:54.022Z,45.50
2019-02-26T14:15:26.677Z,45.80
2019-02-26T14:17:55.063Z,45.30
2019-02-26T14:20:24.407Z,44.40
2019-02-26T14:22:52.791Z,46.40
2019-02-26T14:25:21.079Z,47.40
2019-02-26T14:27:49.812Z,47.40
2019-02-26T14:30:22.106Z,46.50
2019-02-26T14:32:50.462Z,48.80
2019-02-26T14:35:18.771Z,50.30
2019-02-26T14:37:47.244Z,50.80
2019-02-26T14:40:19.438Z,51.20
2019-02-26T14:42:47.766Z,52.00
2019-02-26T14:45:20.629Z,52.50
2019-02-26T14:47:49.030Z,51.30
2019-02-26T14:50:18.551Z,50.80
2019-02-26T14:52:46.960Z,51.60
2019-02-26T14:55:16.090Z,53.00
2019-02-26T14:57:44.481Z,52.50
2019-02-26T15:00:24.355Z,52.90
2019-02-26T15:02:52.702Z,52.50
2019-02-26T15:05:20.982Z,52.30
2019-02-26T15:07:49.381Z,51.50
2019-02-26T15:10:17.738Z,50.80
2019-02-26T15:12:46.182Z,51.80
2019-02-26T15:15:16.910Z,50.70
2019-02-26T15:17:45.263Z,51.00
2019-02-26T15:20:21.877Z,52.20
2019-02-26T15:22:50.200Z,53.50
2019-02-26T15:25:23.760Z,53.80
2019-02-26T15:27:52.150Z,54.40
2019-02-26T15:30:21.463Z,56.10
2019-02-26T15:32:49.823Z,58.10
2019-02-26T15:35:18.222Z,59.00
2019-02-26T15:37:46.568Z,59.30
2019-02-26T15:40:19.676Z,60.00
2019-02-26T15:42:52.298Z,59.20
2019-02-26T15:45:29.513Z,59.90
2019-02-26T15:47:58.054Z,60.00
2019-02-26T15:50:26.415Z,60.00
2019-02-26T15:52:54.703Z,60.50
2019-02-26T15:55:25.904Z,61.50
2019-02-26T15:57:54.788Z,62.30
2019-02-26T16:00:24.713Z,62.60
2019-02-26T16:02:53.860Z,63.30
2019-02-26T16:05:31.120Z,63.60
2019-02-26T16:07:59.545Z,64.40
2019-02-26T16:10:27.898Z,65.10
2019-02-26T16:12:57.896Z,65.70
2019-02-26T16:15:26.334Z,66.00
2019-02-26T16:17:58.165Z,66.40
2019-02-26T16:20:24.842Z,66.70
2019-02-26T16:22:53.240Z,67.40
2019-02-26T16:25:21.612Z,68.20
2019-02-26T16:27:51.672Z,68.50
2019-02-26T16:30:21.873Z,69.20
2019-02-26T16:32:50.348Z,70.00
2019-02-26T16:35:18.734Z,70.50
2019-02-26T16:38:06.583Z,71.00
2019-02-26T16:40:34.959Z,72.10
2019-02-26T16:43:03.749Z,72.80
2019-02-26T16:45:35.075Z,73.80
2019-02-26T16:48:02.123Z,74.00
2019-02-26T16:50:31.415Z,74.30
2019-02-26T16:53:01.052Z,74.90
2019-02-26T16:55:29.880Z,75.30
2019-02-26T16:58:02.375Z,75.90
2019-02-26T17:00:29.727Z,76.60
2019-02-26T17:03:00.003Z,76.60
2019-02-26T17:05:27.406Z,77.20
2019-02-26T17:07:56.087Z,76.90
2019-02-26T17:10:29.365Z,76.90
2019-02-26T17:13:01.994Z,77.70
2019-02-26T17:15:30.668Z,77.60
2019-02-26T17:17:59.014Z,77.50
2019-02-26T17:20:27.367Z,77.80
2019-02-26T17:22:55.774Z,77.80
2019-02-26T17:25:27.525Z,78.30
2019-02-26T17:27:54.151Z,77.80
2019-02-26T17:30:23.863Z,78.40
2019-02-26T17:32:52.475Z,79.00
2019-02-26T17:35:21.379Z,79.40
2019-02-26T17:37:52.727Z,78.80
2019-02-26T17:40:22.243Z,78.80
2019-02-26T17:42:51.312Z,79.40
2019-02-26T17:45:31.515Z,79.80
2019-02-26T17:47:59.909Z,79.40
2019-02-26T17:50:37.252Z,80.50
2019-02-26T17:53:05.552Z,80.30
2019-02-26T17:55:33.835Z,81.10
2019-02-26T17:58:02.156Z,80.80
2019-02-26T18:00:32.148Z,80.90
2019-02-26T18:03:00.431Z,81.60
2019-02-26T18:05:28.828Z,82.00
2019-02-26T18:07:57.179Z,82.70
2019-02-26T18:10:26.627Z,82.50
2019-02-26T18:12:55.581Z,83.40
2019-02-26T18:15:23.957Z,83.60
2019-02-26T18:17:52.297Z,83.10
2019-02-26T18:20:28.087Z,83.10
2019-02-26T18:22:54.320Z,83.40
2019-02-26T18:25:23.510Z,83.80
2019-02-26T18:27:51.833Z,83.40
2019-02-26T18:30:22.024Z,84.40
2019-02-26T18:32:53.164Z,85.00
2019-02-26T18:35:20.443Z,84.80
2019-02-26T18:37:48.900Z,86.20
2019-02-26T18:40:17.817Z,86.60
2019-02-26T18:42:46.337Z,86.50
2019-02-26T18:45:27.447Z,87.50
2019-02-26T18:47:53.048Z,87.80
2019-02-26T18:50:25.791Z,87.80
2019-02-26T18:52:54.087Z,88.40
2019-02-26T18:55:38.537Z,87.50
2019-02-26T18:58:13.731Z,87.50
2019-02-26T19:00:43.055Z,87.80
2019-02-26T19:03:13.080Z,87.70
2019-02-26T19:05:41.427Z,88.40
2019-02-26T19:08:09.772Z,88.90
2019-02-26T19:10:38.171Z,88.90
2019-02-26T19:13:06.599Z,89.40
2019-02-26T19:15:36.945Z,89.20
2019-02-26T19:18:05.331Z,89.90
2019-02-26T19:20:38.725Z,90.10
2019-02-26T19:23:07.108Z,89.60
2019-02-26T19:25:35.481Z,90.30
2019-02-26T19:28:03.864Z,89.90
2019-02-26T19:30:32.264Z,90.30
2019-02-26T19:33:00.687Z,90.40
2019-02-26T19:35:34.803Z,90.50
2019-02-26T19:38:02.729Z,90.70
2019-02-26T19:40:40.650Z,90.60
2019-02-26T19:43:11.976Z,90.60
2019-02-26T19:45:43.815Z,90.80
2019-02-26T19:48:10.407Z,90.80
2019-02-26T19:50:38.796Z,90.80
2019-02-26T19:53:10.732Z,91.00
2019-02-26T19:55:48.797Z,90.90
2019-02-26T19:58:32.260Z,90.90
2019-02-26T20:01:00.786Z,91.40
2019-02-26T20:06:23.568Z,91.50
2019-02-26T20:08:52.389Z,91.60
2019-02-26T20:11:22.761Z,92.20
2019-02-26T20:13:50.848Z,92.00
2019-02-26T20:16:19.136Z,92.70
2019-02-26T20:18:47.420Z,92.80
2019-02-26T20:21:19.663Z,92.80
2019-02-26T20:23:53.536Z,92.40
2019-02-26T20:26:22.122Z,92.80
2019-02-26T20:28:50.479Z,93.10
2019-02-26T20:31:21.459Z,92.30
2019-02-26T20:33:50.529Z,92.60
2019-02-26T20:36:20.509Z,93.10
2019-02-26T20:38:48.787Z,92.90
2019-02-26T20:41:17.192Z,92.80
2019-02-26T20:43:50.825Z,92.50
2019-02-26T20:46:19.175Z,92.20
2019-02-26T20:48:47.593Z,92.20
2019-02-26T20:51:20.596Z,92.00
2019-02-26T20:53:48.959Z,92.10
2019-02-26T20:56:17.855Z,92.20
2019-02-26T20:58:46.150Z,92.20
2019-02-26T21:01:14.602Z,92.30
2019-02-26T21:03:58.842Z,92.20
2019-02-26T21:06:27.195Z,92.10
2019-02-26T21:08:55.603Z,92.10
2019-02-26T21:11:25.932Z,92.20
2019-02-26T21:13:55.671Z,92.20
2019-02-26T21:16:23.995Z,92.40
2019-02-26T21:18:52.276Z,92.50
2019-02-26T21:21:22.161Z,92.40
2019-02-26T21:23:52.153Z,92.30
2019-02-26T21:26:20.541Z,91.90
2019-02-26T21:28:59.390Z,92.20
2019-02-26T21:31:20.732Z,92.00
2019-02-26T21:33:49.016Z,91.90
2019-02-26T21:36:17.367Z,92.30
2019-02-26T21:38:45.735Z,92.40
2019-02-26T21:41:14.044Z,92.10
2019-02-26T21:43:43.947Z,92.00
2019-02-26T21:46:12.545Z,91.80
2019-02-26T21:48:40.820Z,91.70
2019-02-26T21:51:09.105Z,91.70
2019-02-26T21:53:37.419Z,91.30
2019-02-26T21:56:05.699Z,92.30
2019-02-26T21:58:36.052Z,91.90
2019-02-26T22:01:05.412Z,92.20
2019-02-26T22:03:35.414Z,92.00
2019-02-26T22:06:05.483Z,91.90
2019-02-26T22:08:34.372Z,91.70
2019-02-26T22:11:05.568Z,91.80
2019-02-26T22:13:36.945Z,91.90
2019-02-26T22:16:05.317Z,91.80
2019-02-26T22:18:34.325Z,91.90
2019-02-26T22:21:02.791Z,91.80
2019-02-26T22:23:34.040Z,91.70
2019-02-26T22:26:01.235Z,91.40
2019-02-26T22:28:29.591Z,92.10
2019-02-26T22:30:57.903Z,92.20
2019-02-26T22:33:28.480Z,92.80
2019-02-26T22:35:59.822Z,92.80
2019-02-26T22:38:27.876Z,93.10
2019-02-26T22:40:56.251Z,92.80
2019-02-26T22:43:24.519Z,93.10
2019-02-26T22:45:52.856Z,93.20
2019-02-26T22:48:21.258Z,93.00
2019-02-26T22:50:49.551Z,93.20
2019-02-26T22:53:17.965Z,92.50
2019-02-26T22:55:49.610Z,92.10
2019-02-26T22:58:16.315Z,91.90
2019-02-26T23:00:58.244Z,91.80
2019-02-26T23:03:26.523Z,92.20
2019-02-26T23:05:59.051Z,92.20
2019-02-26T23:08:29.898Z,92.50
2019-02-26T23:10:58.323Z,92.30
2019-02-26T23:13:31.431Z,92.70
2019-02-26T23:15:57.110Z,92.70
2019-02-26T23:18:25.448Z,93.00
2019-02-26T23:20:53.727Z,92.90
2019-02-26T23:23:22.413Z,92.70
2019-02-26T23:25:50.825Z,92.90
2019-02-26T23:28:21.731Z,93.30
2019-02-26T23:30:49.191Z,93.20
2019-02-26T23:33:17.488Z,93.20
2019-02-26T23:35:47.999Z,93.40
2019-02-26T23:38:16.320Z,93.60
2019-02-26T23:40:46.363Z,93.80
2019-02-26T23:43:14.719Z,93.70
2019-02-26T23:45:43.047Z,93.60
2019-02-26T23:48:11.400Z,94.00
2019-02-26T23:50:47.119Z,93.60
2019-02-26T23:53:12.571Z,93.50
2019-02-26T23:55:40.927Z,93.60
2019-02-26T23:58:13.743Z,93.50
